createdAt,value
2024-04-12T00:00:23.111Z,3.03
2024-04-12T00:03:09.953Z,2.85
2024-04-12T00:05:56.126Z,2.75
2024-04-12T00:08:52.208Z,2.38
2024-04-12T00:11:40.784Z,2.95
2024-04-12T00:14:26.550Z,2.50
2024-04-12T00:17:17.508Z,3.03
2024-04-12T00:20:05.928Z,2.97
2024-04-12T00:22:56.910Z,2.67
2024-04-12T00:25:43.098Z,2.70
2024-04-12T00:28:32.895Z,2.63
2024-04-12T00:31:18.029Z,2.42
2024-04-12T00:34:05.968Z,2.88
2024-04-12T00:36:51.739Z,3.17
2024-04-12T00:39:40.506Z,2.90
2024-04-12T00:42:33.680Z,3.13
2024-04-12T00:45:39.893Z,2.95
2024-04-12T00:48:27.802Z,3.70
2024-04-12T00:51:18.723Z,2.97
2024-04-12T00:54:08.747Z,3.00
2024-04-12T00:59:43.733Z,3.17
2024-04-12T01:02:28.933Z,3.67
2024-04-12T01:05:18.220Z,3.53
2024-04-12T01:08:07.428Z,3.67
2024-04-12T01:10:54.190Z,3.83
2024-04-12T01:13:40.292Z,3.70
2024-04-12T01:16:25.681Z,3.47
2024-04-12T01:19:13.678Z,3.42
2024-04-12T01:22:01.354Z,3.50
2024-04-12T01:24:46.864Z,3.30
2024-04-12T01:27:35.657Z,2.85
2024-04-12T01:30:21.461Z,2.65
2024-04-12T01:33:09.753Z,2.83
2024-04-12T01:35:56.658Z,2.80
2024-04-12T01:38:43.062Z,2.85
2024-04-12T01:41:33.276Z,3.13
2024-04-12T01:44:25.401Z,2.85
2024-04-12T01:47:15.563Z,2.78
2024-04-12T01:50:02.741Z,2.88
2024-04-12T01:52:58.727Z,2.97
2024-04-12T01:55:47.210Z,2.17
2024-04-12T01:58:35.641Z,2.63
2024-04-12T02:01:23.096Z,4.05
2024-04-12T02:04:08.890Z,2.30
2024-04-12T02:06:54.593Z,2.70
2024-04-12T02:09:41.405Z,2.80
2024-04-12T02:12:29.974Z,2.40
2024-04-12T02:15:21.457Z,2.50
2024-04-12T02:18:06.897Z,2.53
2024-04-12T02:20:54.478Z,2.60
2024-04-12T02:23:42.101Z,2.80
2024-04-12T02:26:27.747Z,3.03
2024-04-12T02:29:13.021Z,2.70
2024-04-12T02:31:59.159Z,2.80
2024-04-12T02:34:49.519Z,3.03
2024-04-12T02:37:36.097Z,2.65
2024-04-12T02:40:21.915Z,2.78
2024-04-12T02:43:07.468Z,2.70
2024-04-12T02:45:58.423Z,2.15
2024-04-12T02:48:48.488Z,2.83
2024-04-12T02:51:34.427Z,3.00
2024-04-12T02:54:22.019Z,3.42
2024-04-12T02:57:08.729Z,4.00
2024-04-12T02:59:54.335Z,3.80
2024-04-12T03:02:40.277Z,3.78
2024-04-12T03:05:25.836Z,3.30
2024-04-12T03:08:19.396Z,3.58
2024-04-12T03:11:15.599Z,3.10
2024-04-12T03:14:16.393Z,3.10
2024-04-12T03:17:05.520Z,3.38
2024-04-12T03:19:51.128Z,3.72
2024-04-12T03:22:36.575Z,3.20
2024-04-12T03:25:23.417Z,3.40
2024-04-12T03:28:10.082Z,3.88
2024-04-12T03:30:56.299Z,3.33
2024-04-12T03:33:45.356Z,3.42
2024-04-12T03:36:33.543Z,3.17
2024-04-12T03:39:23.665Z,3.55
2024-04-12T03:42:13.066Z,3.85
2024-04-12T03:44:59.343Z,3.83
2024-04-12T03:47:51.648Z,4.30
2024-04-12T03:50:37.437Z,4.07
2024-04-12T03:53:30.041Z,4.53
2024-04-12T03:56:15.286Z,4.28
2024-04-12T03:59:02.114Z,4.28
2024-04-12T04:01:49.147Z,5.05
2024-04-12T04:04:39.308Z,6.00
2024-04-12T04:07:25.101Z,6.40
2024-04-12T04:10:14.636Z,5.30
2024-04-12T04:13:05.129Z,5.47
2024-04-12T04:15:52.000Z,5.15
2024-04-12T04:18:37.727Z,4.82
2024-04-12T04:21:25.801Z,6.82
2024-04-12T04:24:11.426Z,4.78
2024-04-12T04:26:58.177Z,5.35
2024-04-12T04:29:45.386Z,8.05
2024-04-12T04:32:31.235Z,5.82
2024-04-12T04:35:16.666Z,5.45
2024-04-12T04:38:02.363Z,5.88
2024-04-12T04:40:47.624Z,4.93
2024-04-12T04:43:37.049Z,5.13
2024-04-12T04:46:28.570Z,5.65
2024-04-12T04:49:15.172Z,5.53
2024-04-12T04:52:03.011Z,5.20
2024-04-12T04:54:49.167Z,5.00
2024-04-12T04:57:44.613Z,5.38
2024-04-12T05:00:41.959Z,4.70
2024-04-12T05:03:27.338Z,4.88
2024-04-12T05:06:13.860Z,4.72
2024-04-12T05:09:02.435Z,4.38
2024-04-12T05:11:53.795Z,4.47
2024-04-12T05:14:39.795Z,5.82
2024-04-12T05:17:25.512Z,6.28
2024-04-12T05:20:21.321Z,5.85
2024-04-12T05:23:09.655Z,6.07
2024-04-12T05:25:55.831Z,5.50
2024-04-12T05:28:43.664Z,5.60
2024-04-12T05:31:31.527Z,6.20
2024-04-12T05:34:20.066Z,6.55
2024-04-12T05:37:05.379Z,7.15
2024-04-12T05:39:58.135Z,6.82
2024-04-12T05:42:43.370Z,7.28
2024-04-12T05:45:28.943Z,8.60
2024-04-12T05:48:15.694Z,7.75
2024-04-12T05:51:03.311Z,8.75
2024-04-12T05:53:52.658Z,8.48
2024-04-12T05:56:40.920Z,7.78
2024-04-12T05:59:26.707Z,7.90
2024-04-12T06:02:16.756Z,8.23
2024-04-12T06:05:06.182Z,7.70
2024-04-12T06:07:51.400Z,7.10
2024-04-12T06:10:39.053Z,7.47
2024-04-12T06:13:25.464Z,7.53
2024-04-12T06:16:12.937Z,8.35
2024-04-12T06:19:00.037Z,7.85
2024-04-12T06:21:50.057Z,11.82
2024-04-12T06:24:38.631Z,8.13
2024-04-12T06:27:31.386Z,7.73
2024-04-12T06:30:19.058Z,7.60
2024-04-12T06:33:07.428Z,6.93
2024-04-12T06:36:06.666Z,7.18
2024-04-12T06:38:54.128Z,5.97
2024-04-12T06:41:39.384Z,6.90
2024-04-12T06:44:26.139Z,6.50
2024-04-12T06:47:13.357Z,7.03
2024-04-12T06:50:09.356Z,6.05
2024-04-12T06:52:55.472Z,6.53
2024-04-12T06:55:47.537Z,5.97
2024-04-12T06:58:39.491Z,6.22
2024-04-12T07:01:27.029Z,7.15
2024-04-12T07:04:12.520Z,6.95
2024-04-12T07:06:58.145Z,6.15
2024-04-12T07:09:47.033Z,6.95
2024-04-12T07:12:33.339Z,7.75
2024-04-12T07:15:22.604Z,7.80
2024-04-12T07:18:12.297Z,7.00
2024-04-12T07:21:16.329Z,7.15
2024-04-12T07:24:02.138Z,6.05
2024-04-12T07:26:48.625Z,5.97
2024-04-12T07:29:35.033Z,5.70
2024-04-12T07:32:23.723Z,6.35
2024-04-12T07:35:27.538Z,6.75
2024-04-12T07:38:13.908Z,6.43
2024-04-12T07:40:59.419Z,6.07
2024-04-12T07:43:44.986Z,6.47
2024-04-12T07:46:34.984Z,6.35
2024-04-12T07:49:21.112Z,6.47
2024-04-12T07:52:11.114Z,6.90
2024-04-12T07:54:56.585Z,7.13
2024-04-12T07:57:51.401Z,7.00
2024-04-12T08:00:49.232Z,7.35
2024-04-12T08:03:38.046Z,7.40
2024-04-12T08:06:59.796Z,8.32
2024-04-12T08:09:54.186Z,8.27
2024-04-12T08:12:40.034Z,7.70
2024-04-12T08:15:25.554Z,8.38
2024-04-12T08:18:12.819Z,7.65
2024-04-12T08:21:03.604Z,8.27
2024-04-12T08:23:52.512Z,8.43
2024-04-12T08:26:39.065Z,8.18
2024-04-12T08:29:24.923Z,7.05
2024-04-12T08:32:10.757Z,7.45
2024-04-12T08:34:59.213Z,7.90
2024-04-12T08:37:45.422Z,7.35
2024-04-12T08:40:38.630Z,7.75
2024-04-12T08:43:42.939Z,7.70
2024-04-12T08:46:34.681Z,8.88
2024-04-12T08:49:21.936Z,8.20
2024-04-12T08:52:25.926Z,8.55
2024-04-12T08:55:18.472Z,7.28
2024-04-12T08:58:08.263Z,7.72
2024-04-12T09:00:56.466Z,6.85
2024-04-12T09:03:46.801Z,7.70
2024-04-12T09:06:36.233Z,7.32
2024-04-12T09:12:15.288Z,9.15
2024-04-12T09:15:01.261Z,9.52
2024-04-12T09:17:49.315Z,8.80
2024-04-12T09:20:40.022Z,9.35
2024-04-12T09:23:34.943Z,9.98
2024-04-12T09:26:24.561Z,9.05
2024-04-12T09:29:12.752Z,9.52
2024-04-12T09:32:17.560Z,9.93
2024-04-12T09:35:05.940Z,9.02
2024-04-12T09:38:02.796Z,8.60
2024-04-12T09:40:56.747Z,8.55
2024-04-12T09:43:48.717Z,8.90
2024-04-12T09:47:08.600Z,9.70
2024-04-12T09:50:14.138Z,9.43
2024-04-12T09:53:20.113Z,8.80
2024-04-12T09:56:31.846Z,9.38
2024-04-12T09:59:46.659Z,8.93
2024-04-12T10:02:51.666Z,9.35
2024-04-12T10:05:58.720Z,7.80
2024-04-12T10:09:03.126Z,7.47
2024-04-12T10:12:09.632Z,7.60
2024-04-12T10:15:16.515Z,9.27
2024-04-12T10:18:33.005Z,7.55
2024-04-12T10:21:37.144Z,6.97
2024-04-12T10:24:46.494Z,6.53
2024-04-12T10:27:50.550Z,6.85
2024-04-12T10:31:05.058Z,6.63
2024-04-12T10:34:09.124Z,6.15
2024-04-12T10:37:14.092Z,6.65
2024-04-12T10:39:59.947Z,6.10
2024-04-12T10:42:48.183Z,5.70
2024-04-12T10:45:37.875Z,6.32
2024-04-12T10:48:23.348Z,7.30
2024-04-12T10:51:13.067Z,7.30
2024-04-12T10:54:00.518Z,6.32
2024-04-12T10:56:46.878Z,6.32
2024-04-12T10:59:36.335Z,6.90
2024-04-12T11:02:23.354Z,5.70
2024-04-12T11:05:20.793Z,6.30
2024-04-12T11:08:17.220Z,5.93
2024-04-12T11:11:20.352Z,6.32
2024-04-12T11:14:16.767Z,6.38
2024-04-12T11:17:21.289Z,6.15
2024-04-12T11:20:25.139Z,6.90
2024-04-12T11:23:29.128Z,6.68
2024-04-12T11:26:36.686Z,5.25
2024-04-12T11:29:40.640Z,6.60
2024-04-12T11:32:26.707Z,6.25
2024-04-12T11:35:12.926Z,5.55
2024-04-12T11:37:59.189Z,6.15
2024-04-12T11:40:46.765Z,5.35
2024-04-12T11:43:33.807Z,5.20
2024-04-12T11:46:20.675Z,4.88
2024-04-12T11:49:09.063Z,5.05
2024-04-12T11:52:03.687Z,4.38
2024-04-12T11:54:54.544Z,5.20
2024-04-12T11:57:42.654Z,5.90
2024-04-12T12:00:28.596Z,4.88
2024-04-12T12:03:17.855Z,4.10
2024-04-12T12:08:58.664Z,4.25
2024-04-12T12:11:44.693Z,4.63
2024-04-12T12:14:30.444Z,4.38
2024-04-12T12:17:20.063Z,4.60
2024-04-12T12:20:07.193Z,3.72
2024-04-12T12:22:52.957Z,4.32
2024-04-12T12:25:39.855Z,4.18
2024-04-12T12:28:27.971Z,4.15
2024-04-12T12:31:14.617Z,4.18
2024-04-12T12:34:00.880Z,4.43
2024-04-12T12:36:46.282Z,4.15
2024-04-12T12:39:32.803Z,3.88
2024-04-12T12:42:18.477Z,3.97
2024-04-12T12:45:04.739Z,3.95
2024-04-12T12:47:50.646Z,4.00
2024-04-12T12:50:35.843Z,4.00
2024-04-12T12:53:23.636Z,4.32
2024-04-12T12:56:09.160Z,3.15
2024-04-12T12:58:54.636Z,4.15
2024-04-12T13:01:43.100Z,4.07
2024-04-12T13:04:29.638Z,4.25
2024-04-12T13:07:18.573Z,3.90
2024-04-12T13:10:07.217Z,3.05
2024-04-12T13:12:55.957Z,3.97
2024-04-12T13:15:41.536Z,3.42
2024-04-12T13:18:32.931Z,3.40
2024-04-12T13:21:19.853Z,3.92
2024-04-12T13:24:08.914Z,3.80
2024-04-12T13:26:56.169Z,4.13
2024-04-12T13:29:45.859Z,3.90
2024-04-12T13:32:31.179Z,3.58
2024-04-12T13:35:18.144Z,2.97
2024-04-12T13:38:04.957Z,3.08
2024-04-12T13:40:55.985Z,2.58
2024-04-12T13:43:41.130Z,3.15
2024-04-12T13:46:46.599Z,2.75
2024-04-12T13:49:56.196Z,3.00
2024-04-12T13:52:45.328Z,2.22
2024-04-12T13:55:33.681Z,3.03
2024-04-12T13:58:21.512Z,2.47
2024-04-12T14:01:07.740Z,2.40
2024-04-12T14:04:00.244Z,2.50
2024-04-12T14:06:49.961Z,2.35
2024-04-12T14:09:35.351Z,2.30
2024-04-12T14:12:20.910Z,2.67
2024-04-12T14:15:06.968Z,2.70
2024-04-12T14:17:53.418Z,2.42
2024-04-12T14:20:39.150Z,2.30
2024-04-12T14:23:25.591Z,2.10
2024-04-12T14:26:12.087Z,2.40
2024-04-12T14:29:01.733Z,2.40
2024-04-12T14:34:36.936Z,2.28
2024-04-12T14:37:22.999Z,3.38
2024-04-12T14:40:08.994Z,2.45
2024-04-12T14:42:54.428Z,3.40
2024-04-12T14:45:39.701Z,3.28
2024-04-12T14:48:25.390Z,2.13
2024-04-12T14:51:11.085Z,4.65
2024-04-12T14:53:56.688Z,5.47
2024-04-12T14:56:46.138Z,2.90
2024-04-12T15:02:21.283Z,2.50
2024-04-12T15:05:25.231Z,2.33
2024-04-12T15:08:32.593Z,2.92
2024-04-12T15:11:37.741Z,3.73
2024-04-12T15:14:41.598Z,3.00
2024-04-12T15:17:45.525Z,3.05
2024-04-12T15:20:49.376Z,2.58
2024-04-12T15:23:53.297Z,2.50
2024-04-12T15:26:57.162Z,3.33
2024-04-12T15:30:01.283Z,2.58
2024-04-12T15:33:05.701Z,2.53
2024-04-12T15:36:10.248Z,2.55
2024-04-12T15:39:14.351Z,3.13
2024-04-12T15:42:18.595Z,3.00
2024-04-12T15:45:22.691Z,3.28
2024-04-12T15:48:13.249Z,2.45
2024-04-12T15:50:58.772Z,2.90
2024-04-12T15:53:46.893Z,3.28
2024-04-12T15:56:32.950Z,3.13
2024-04-12T15:59:37.114Z,2.83
2024-04-12T16:02:41.225Z,2.67
2024-04-12T16:05:45.240Z,2.50
2024-04-12T16:08:49.238Z,2.67
2024-04-12T16:11:34.986Z,3.45
2024-04-12T16:14:20.567Z,3.13
2024-04-12T16:17:06.229Z,2.53
2024-04-12T16:19:53.745Z,2.50
2024-04-12T16:22:39.829Z,2.97
2024-04-12T16:25:25.453Z,2.53
2024-04-12T16:28:12.152Z,2.47
2024-04-12T16:30:59.989Z,3.60
2024-04-12T16:33:46.860Z,2.80
2024-04-12T16:36:33.115Z,2.92
2024-04-12T16:39:18.837Z,2.58
2024-04-12T16:42:04.500Z,3.20
2024-04-12T16:44:49.799Z,3.55
